»·PEaware :: N112PC KOLM-KRBG

N112PC :: KOLM-KRBG

FLIGHT INFORMATION

Flight Status: Arrived
Operator: Privately registered:
United States
More flights under this callsign
Pilot: Gabor H. (24209)
Aircraft: PILATUS PC-12 EAGLE
(PC12)
More flights by this aircraft type
Origin: KOLM Olympia
United States
Destination: KRBG Roseburg Regl
United States
More flights between these airports :: More routes between these airports
Route: +YELM5 OLM V165 UBG V495 RBG
File this flight plan on PilotEdge
Remarks:
Altitude:
(Current/Filed)
21,000ft
Speed:
(Current/Filed)
260kts
Departed: 21-May-19 07:23 AM
Arrived: 21-May-19 08:37 AM
Distance/Time
Traveled:
225nm/1:14
Distance/Time
To Go:
Arrived

Flight Plot

Page will automatically refresh every two minutes.

Flight plan parsing failed; only flown route is shown


Map Options




Map Legend


Flown Route
Filed Route
Departure Airport
Arrival Airport
Navaid (VOR, NDB)
Fix

Horizontal Profiles

Position Reports

Time Latitude Longitude Heading Altitude Ground
Speed
21-May-19 07:03 46.975036 -122.898221 145 201ft 0kts
21-May-19 07:04 46.975036 -122.898221 145 201ft 0kts
21-May-19 07:05 46.975036 -122.898221 145 201ft 0kts
21-May-19 07:06 46.975036 -122.898221 145 201ft 0kts
21-May-19 07:07 46.975036 -122.898221 145 201ft 0kts
21-May-19 07:08 46.975036 -122.898221 145 201ft 0kts
21-May-19 07:09 46.975036 -122.898221 145 201ft 0kts
21-May-19 07:10 46.975036 -122.898221 145 201ft 0kts
21-May-19 07:11 46.975036 -122.898221 145 201ft 0kts
21-May-19 07:12 46.975036 -122.898221 145 201ft 0kts
21-May-19 07:13 46.975036 -122.898221 145 201ft 0kts
21-May-19 07:14 46.975036 -122.898221 145 201ft 0kts
21-May-19 07:15 46.975036 -122.898221 145 201ft 0kts
21-May-19 07:16 46.975036 -122.898221 145 201ft 0kts
21-May-19 07:17 46.975036 -122.898221 145 201ft 0kts
21-May-19 07:18 46.975036 -122.898220 145 201ft 0kts
21-May-19 07:19 46.974462 -122.898389 279 201ft 7kts
21-May-19 07:20 46.976174 -122.901270 279 201ft 3kts
21-May-19 07:21 46.976190 -122.901409 279 201ft 0kts
21-May-19 07:22 46.965417 -122.902219 164 413ft 118kts
21-May-19 07:23 46.953599 -122.858372 79 1989ft 150kts
21-May-19 07:24 46.960701 -122.796631 79 3501ft 155kts
21-May-19 07:25 46.946689 -122.748090 183 4993ft 161kts
21-May-19 07:26 46.908497 -122.785861 218 6524ft 176kts
21-May-19 07:27 46.868352 -122.832733 218 8051ft 196kts
21-May-19 07:28 46.824416 -122.884622 218 9701ft 206kts
21-May-19 07:29 46.779055 -122.938093 217 11408ft 213kts
21-May-19 07:30 46.730437 -122.990259 203 12989ft 220kts
21-May-19 07:31 46.672189 -123.018569 191 14494ft 221kts
21-May-19 07:32 46.612188 -123.041423 190 16000ft 222kts
21-May-19 07:33 46.552651 -123.064484 190 17497ft 219kts
21-May-19 07:34 46.494140 -123.086898 188 18990ft 214kts
21-May-19 07:35 46.436982 -123.108167 182 20482ft 207kts
21-May-19 07:36 46.374779 -123.106712 170 20786ft 241kts
21-May-19 07:37 46.306170 -123.098440 170 20780ft 250kts
21-May-19 07:38 46.236526 -123.089659 170 20779ft 251kts
21-May-19 07:39 46.166781 -123.080798 169 20779ft 251kts
21-May-19 07:40 46.096925 -123.071897 169 20777ft 251kts
21-May-19 07:41 46.027293 -123.062998 169 20775ft 251kts
21-May-19 07:43 45.957954 -123.054239 169 20771ft 248kts
21-May-19 07:44 45.889426 -123.045447 169 20766ft 247kts
21-May-19 07:45 45.821002 -123.036811 169 20762ft 247kts
21-May-19 07:46 45.752658 -123.028088 169 20759ft 247kts
21-May-19 07:47 45.684017 -123.019475 169 20755ft 247kts
21-May-19 07:48 45.615572 -123.011041 169 20752ft 247kts
21-May-19 07:49 45.547091 -123.002537 169 20750ft 247kts
21-May-19 07:50 45.478429 -122.993989 170 20750ft 248kts
21-May-19 07:51 45.409767 -122.985417 170 20749ft 247kts
21-May-19 07:52 45.340623 -122.986330 184 20748ft 254kts
21-May-19 07:53 45.271116 -123.009452 188 20745ft 256kts
21-May-19 07:54 45.202009 -123.035120 188 20742ft 257kts
21-May-19 07:55 45.132949 -123.060846 188 20741ft 256kts
21-May-19 07:56 45.063947 -123.086384 188 20741ft 256kts
21-May-19 07:57 44.994909 -123.112131 189 20741ft 256kts
21-May-19 07:58 44.925852 -123.137744 189 20740ft 257kts
21-May-19 07:59 44.856764 -123.163198 189 20739ft 256kts
21-May-19 08:00 44.787145 -123.188626 189 20461ft 264kts
21-May-19 08:01 44.715627 -123.215057 190 18982ft 266kts
21-May-19 08:02 44.644800 -123.241132 191 17484ft 261kts
21-May-19 08:02 44.585957 -123.262606 192 16232ft 261kts
21-May-19 08:04 44.504416 -123.292316 193 14485ft 258kts
21-May-19 08:05 44.436784 -123.317683 193 14009ft 248kts
21-May-19 08:05 44.380768 -123.338567 193 14007ft 251kts
21-May-19 08:07 44.301507 -123.367968 193 14004ft 252kts
21-May-19 08:07 44.244752 -123.388854 193 14001ft 253kts
21-May-19 08:09 44.165473 -123.418398 194 14000ft 253kts
21-May-19 08:09 44.108694 -123.439325 194 13999ft 253kts
21-May-19 08:10 44.039592 -123.456114 183 13999ft 253kts
21-May-19 08:12 43.956910 -123.461477 184 13512ft 262kts
21-May-19 08:12 43.896648 -123.464634 184 12265ft 257kts
21-May-19 08:13 43.826429 -123.468531 185 11062ft 245kts
21-May-19 08:14 43.758815 -123.472859 185 11005ft 243kts
21-May-19 08:15 43.690574 -123.476172 184 11006ft 249kts
21-May-19 08:16 43.620518 -123.479096 184 11007ft 254kts
21-May-19 08:17 43.549529 -123.482106 184 11003ft 256kts
21-May-19 08:18 43.478369 -123.485205 185 11001ft 255kts
21-May-19 08:19 43.406785 -123.488264 184 10029ft 256kts
21-May-19 08:20 43.337549 -123.491154 184 9023ft 235kts
21-May-19 08:21 43.276394 -123.493421 184 9000ft 210kts
21-May-19 08:22 43.218762 -123.495585 184 9002ft 205kts
21-May-19 08:23 43.160344 -123.497774 184 7812ft 209kts
21-May-19 08:24 43.104859 -123.499872 183 7005ft 184kts
21-May-19 08:25 43.056917 -123.512725 231 6249ft 179kts
21-May-19 08:26 43.067844 -123.570137 314 5608ft 162kts
21-May-19 08:27 43.068960 -123.615029 195 5600ft 139kts
21-May-19 08:28 43.052735 -123.570546 92 5605ft 164kts
21-May-19 08:29 43.055645 -123.505586 87 4838ft 162kts
21-May-19 08:30 43.061256 -123.444077 85 4488ft 164kts
21-May-19 08:31 43.069159 -123.384479 58 4298ft 161kts
21-May-19 08:32 43.111620 -123.358737 8 3489ft 168kts
21-May-19 08:33 43.156931 -123.354511 3 2479ft 159kts
21-May-19 08:34 43.198967 -123.355655 1 1557ft 112kts
21-May-19 08:35 43.225827 -123.355700 357 772ft 85kts
21-May-19 08:36 43.238516 -123.356540 183 532ft 9kts
21-May-19 08:37 43.236428 -123.357440 359 532ft 1kts
21-May-19 08:38 43.236440 -123.357440 359 532ft 0kts
21-May-19 08:39 43.236440 -123.357440 359 532ft 0kts
21-May-19 08:40 43.236440 -123.357440 359 532ft 0kts

Navigation Log

Ident Type
Flight plan parsing failed, navigation log unavailable